Flight Track Log - Related Links

Times and Time Zones

All times are in EDT time to prevent confusion due to time zone crossing. See the N942TW flight status page for this flight to view local times or setup timezone preferences in your user account.

Time Position Orientation Groundspeed Altitude Reporting Facility
EDT Latitude Longitude Course Direction KTS MPH feet Rate Location/Type
Sun 12:34:37 PM 36.1928 -115.1914 281° West 143 165 2,900  Level Los Angeles Center
Sun 12:35:39 PM 36.2008 -115.2422 281° West 178 205 4,000 1,016 Climbing Los Angeles Center
Sun 12:36:41 PM 36.2342 -115.2925 309° West 189 217 5,000 1,210 Climbing Los Angeles Center
Sun 12:37:43 PM 36.2772 -115.3247 329° Northwest 186 214 6,500 1,548 Climbing Los Angeles Center
Sun 12:38:45 PM 36.3278 -115.3639 328° Northwest 181 208 8,200 1,488 Climbing Los Angeles Center
Sun 12:39:48 PM 36.3636 -115.4072 316° Northwest 179 206 9,600 1,344 Climbing Los Angeles Center
Sun 12:40:50 PM 36.3947 -115.4583 307° West 184 212 11,000 1,306 Climbing Los Angeles Center
Sun 12:41:52 PM 36.4164 -115.5181 294° West 190 219 12,300 1,452 Climbing Los Angeles Center
Sun 12:42:54 PM 36.4372 -115.5917 289° West 191 220 14,000 1,403 Climbing Los Angeles Center
Sun 12:43:56 PM 36.4508 -115.6558 285° West 194 223 15,200 1,113 Climbing Los Angeles Center
Sun 12:44:58 PM 36.4647 -115.7228 284° West 200 230 16,300 968 Climbing Los Angeles Center
Sun 12:46:00 PM 36.4706 -115.7767 278° West 199 229 17,200 1,016 Climbing Los Angeles Center
Sun 12:47:02 PM 36.4803 -115.8597 278° West 202 232 18,400 1,065 Climbing Los Angeles Center
Sun 12:48:04 PM 36.4942 -115.9375 283° West 207 238 19,400 960 Climbing Los Angeles Center
Sun 12:49:07 PM 36.5083 -116.0117 283° West 206 237 20,400 1,104 Climbing Los Angeles Center
Sun 12:50:09 PM 36.5308 -116.0731 295° West 196 226 21,700 1,113 Climbing Los Angeles Center
Sun 12:51:11 PM 36.5581 -116.1361 298° West 192 221 22,700 871 Climbing Los Angeles Center
Sun 12:52:13 PM 36.5828 -116.1969 297° West 197 227 23,500 629 Climbing Los Angeles Center
Sun 12:53:15 PM 36.6086 -116.2586 298° West 199 229 24,000 242 Climbing Los Angeles Center
Sun 12:54:17 PM 36.6364 -116.3311 296° West 223 257 24,000  Level Los Angeles Center
Sun 12:55:20 PM 36.6683 -116.4083 297° West 245 282 24,000  Level Los Angeles Center
Sun 12:56:21 PM 36.6992 -116.4867 296° West 252 290 24,000  Level Los Angeles Center
Sun 12:57:23 PM 36.7297 -116.5653 296° West 251 289 24,000  Level Los Angeles Center
Sun 12:58:38 PM 36.7742 -116.6764 297° West 255 293 24,000  Level Los Angeles Center
Sun 12:59:40 PM 36.8047 -116.7553 296° West 254 292 24,000  Level Los Angeles Center
Sun 01:00:42 PM 36.8200 -116.8411 283° West 256 295 24,000  Level Los Angeles Center
Sun 01:01:44 PM 36.8297 -116.9292 278° West 256 295 24,000  Level Los Angeles Center
Sun 01:02:46 PM 36.8436 -117.0158 281° West 256 295 24,000  Level Los Angeles Center
Sun 01:03:49 PM 36.8586 -117.1192 280° West 253 291 24,000  Level Los Angeles Center
Sun 01:04:51 PM 36.8711 -117.2078 280° West 256 295 24,000  Level Los Angeles Center
Sun 01:05:34 PM 36.8797 -117.2597 282° West 254 292 24,000  Level Oakland Center
Sun 01:06:35 PM 36.8922 -117.3458 280° West 253 291 24,000  Level Oakland Center
Sun 01:07:37 PM 36.9078 -117.4508 281° West 255 293 24,000  Level Oakland Center
Sun 01:08:38 PM 36.9203 -117.5378 280° West 254 292 24,000  Level Oakland Center
Sun 01:09:40 PM 36.9333 -117.6247 281° West 255 293 24,000  Level Oakland Center
Sun 01:10:01 PM 36.9383 -117.6608 280° West 255 293 24,000  Level Los Angeles Center
Sun 01:11:03 PM 36.9517 -117.7464 281° West 254 292 24,000  Level Los Angeles Center
Sun 01:12:06 PM 36.9639 -117.8328 280° West 252 290 24,000  Level Los Angeles Center
Sun 01:13:08 PM 36.9767 -117.9197 280° West 254 292 24,000 -48 Level Los Angeles Center
Sun 01:14:10 PM 36.9889 -118.0061 280° West 253 291 23,900  Descending Los Angeles Center
Sun 01:15:12 PM 37.0017 -118.0950 280° West 256 295 24,000 48 Climbing Los Angeles Center
Sun 01:16:14 PM 37.0139 -118.1800 280° West 251 289 24,000  Level Los Angeles Center
Sun 01:17:16 PM 37.0281 -118.2836 280° West 251 289 24,000  Level Los Angeles Center
Sun 01:18:18 PM 37.0397 -118.3697 280° West 251 289 24,000  Level Los Angeles Center
Sun 01:18:54 PM 37.0450 -118.4175 278° West 246 283 24,000  Level Oakland Center
Sun 01:19:55 PM 37.0575 -118.4983 281° West 253 291 24,000  Level Oakland Center
Sun 01:20:57 PM 37.0647 -118.5867 276° West 258 297 24,000  Level Oakland Center
Sun 01:21:58 PM 37.0628 -118.6731 268° West 252 290 24,000  Level Oakland Center
Sun 01:23:00 PM 37.0642 -118.7783 271° West 253 291 24,000  Level Oakland Center
Sun 01:24:01 PM 37.0678 -118.8725 273° West 271 312 24,000  Level Oakland Center
Sun 01:25:03 PM 37.0667 -118.9589 269° West 254 292 24,000 -390 Level Oakland Center
Sun 01:26:04 PM 37.0661 -119.0481 270° West 260 299 23,200 -829 Descending Oakland Center
Sun 01:27:06 PM 37.0664 -119.1442 270° West 274 315 22,300 -878 Descending Oakland Center
Sun 01:28:07 PM 37.0672 -119.2453 271° West 288 331 21,400 -927 Descending Oakland Center
Sun 01:29:09 PM 37.0669 -119.3433 270° West 284 327 20,400 -976 Descending Oakland Center
Sun 01:30:10 PM 37.0672 -119.4433 270° West 290 334 19,400 -1,082 Descending Oakland Center
Sun 01:31:11 PM 37.0664 -119.5639 270° West 291 335 18,200 -1,073 Descending Oakland Center
Sun 01:32:13 PM 37.0728 -119.6633 275° West 291 335 17,200 -829 Descending Oakland Center
Sun 01:33:14 PM 37.0917 -119.7597 284° West 286 329 16,500 -341 Descending Oakland Center
Sun 01:34:16 PM 37.1047 -119.8458 281° West 263 303 16,500  Level Oakland Center
Sun 01:35:17 PM 37.1208 -119.9347 283° West 260 299 16,500  Level Oakland Center
Sun 01:36:19 PM 37.1367 -120.0228 283° West 255 293 16,500  Level Oakland Center
Sun 01:37:20 PM 37.1550 -120.1278 282° West 258 297 16,500  Level Oakland Center
Sun 01:38:22 PM 37.1703 -120.2158 282° West 261 300 16,500  Level Oakland Center
Sun 01:39:23 PM 37.1856 -120.3031 282° West 257 296 16,500  Level Oakland Center
Sun 01:40:25 PM 37.2006 -120.3897 282° West 257 296 16,500  Level Oakland Center
Sun 01:41:26 PM 37.2164 -120.4772 283° West 255 293 16,500  Level Oakland Center
Sun 01:42:27 PM 37.2319 -120.5636 283° West 253 291 16,500  Level Oakland Center
Sun 01:43:30 PM 37.2500 -120.6667 282° West 249 287 16,500  Level Northern Cal TRACON
Sun 01:44:24 PM 37.2667 -120.7500 284° West 257 296 16,500  Level Northern Cal TRACON
Sun 01:45:24 PM 37.2833 -120.8333 284° West 256 295 16,500  Level Northern Cal TRACON
Sun 01:46:24 PM 37.3000 -120.9000 287° West 257 296 16,500 -450 Level Northern Cal TRACON
Sun 01:47:24 PM 37.3333 -121.0000 293° West 271 312 15,600 -900 Descending Northern Cal TRACON
Sun 01:48:24 PM 37.3500 -121.0833 284° West 278 320 14,700 -1,000 Descending Northern Cal TRACON
Sun 01:49:24 PM 37.3667 -121.1833 282° West 285 328 13,600 -1,100 Descending Northern Cal TRACON
Sun 01:50:24 PM 37.4000 -121.2833 293° West 285 328 12,500 -1,250 Descending Northern Cal TRACON
Sun 01:51:24 PM 37.4167 -121.3667 284° West 269 310 11,100 -1,526 Descending Northern Cal TRACON
Sun 01:52:18 PM 37.4333 -121.4500 284° West 269 310 9,600 -1,421 Descending Northern Cal TRACON
Sun 01:53:18 PM 37.4500 -121.5500 282° West 272 313 8,400 -1,100 Descending Northern Cal TRACON
Sun 01:54:18 PM 37.4667 -121.6333 284° West 266 306 7,400 -947 Descending Northern Cal TRACON
Sun 01:55:12 PM 37.4833 -121.7167 284° West 262 302 6,600 -950 Descending Northern Cal TRACON
Sun 01:56:18 PM 37.5167 -121.8000 297° West 262 302 5,500 -1,050 Descending Northern Cal TRACON
Sun 01:57:12 PM 37.5333 -121.8833 284° West 253 291 4,500 -947 Descending Northern Cal TRACON
Sun 01:58:12 PM 37.5333 -121.9667 270° West 236 272 3,700 -1,095 Descending Northern Cal TRACON
Sun 01:59:18 PM 37.5500 -122.0500 284° West 241 277 2,200 -1,200 Descending Northern Cal TRACON
Sun 02:00:12 PM 37.5500 -122.1333 270° West 223 257 1,300 -625 Descending Northern Cal TRACON
Sun 02:00:54 PM 37.5414 -122.1786 257° West 227 261 1,200 -175 Descending Oakland Center
Sun 02:01:55 PM 37.5456 -122.2503 274° West 213 245 1,000 -488 Descending Oakland Center
Sun 02:02:57 PM 37.5186 -122.2614 198° South 148 170 200 -774 Descending Oakland Center
Sun 02:05:00 PM 37.5118 -122.2495 126° Southeast  Level Estimated
Sun 02:12:00 PM 37.5119 -122.2495 330° Northwest  Level Estimated
Sun 02:13:00 PM 37.5118 -122.2495 210° Southwest  Level Estimated

Login

Don't have an account? Register now (free) for customized features, flight alerts, and more!